sensor_id;sensor_type;location;lat;lon;timestamp;P1;durP1;ratioP1;P2;durP2;ratioP2
28822;SDS011;15961;54.678;9.110;2022-11-20T00:01:47;8.05;;;3.45;;
28822;SDS011;15961;54.678;9.110;2022-11-20T00:04:13;5.82;;;2.40;;
28822;SDS011;15961;54.678;9.110;2022-11-20T00:06:39;10.23;;;3.75;;
28822;SDS011;15961;54.678;9.110;2022-11-20T00:09:04;7.05;;;3.00;;
28822;SDS011;15961;54.678;9.110;2022-11-20T00:11:30;8.95;;;3.10;;
28822;SDS011;15961;54.678;9.110;2022-11-20T00:13:57;11.25;;;4.88;;
28822;SDS011;15961;54.678;9.110;2022-11-20T00:16:25;7.28;;;3.45;;
28822;SDS011;15961;54.678;9.110;2022-11-20T00:18:52;6.85;;;3.03;;
28822;SDS011;15961;54.678;9.110;2022-11-20T00:21:22;15.65;;;3.22;;
28822;SDS011;15961;54.678;9.110;2022-11-20T00:23:50;6.85;;;2.75;;
28822;SDS011;15961;54.678;9.110;2022-11-20T00:26:18;8.32;;;2.83;;
28822;SDS011;15961;54.678;9.110;2022-11-20T00:28:49;7.03;;;2.90;;
28822;SDS011;15961;54.678;9.110;2022-11-20T00:31:16;4.18;;;2.83;;
28822;SDS011;15961;54.678;9.110;2022-11-20T00:33:43;11.32;;;3.45;;
28822;SDS011;15961;54.678;9.110;2022-11-20T00:36:09;14.85;;;4.18;;
28822;SDS011;15961;54.678;9.110;2022-11-20T00:38:37;6.43;;;3.13;;
28822;SDS011;15961;54.678;9.110;2022-11-20T00:41:04;10.27;;;3.25;;
28822;SDS011;15961;54.678;9.110;2022-11-20T00:43:31;4.95;;;2.53;;
28822;SDS011;15961;54.678;9.110;2022-11-20T00:45:59;13.18;;;4.72;;
28822;SDS011;15961;54.678;9.110;2022-11-20T00:48:37;7.85;;;3.63;;
28822;SDS011;15961;54.678;9.110;2022-11-20T00:51:02;7.60;;;3.33;;
28822;SDS011;15961;54.678;9.110;2022-11-20T00:53:28;11.18;;;3.40;;
28822;SDS011;15961;54.678;9.110;2022-11-20T00:56:00;11.25;;;3.47;;
28822;SDS011;15961;54.678;9.110;2022-11-20T00:58:31;12.57;;;3.67;;
28822;SDS011;15961;54.678;9.110;2022-11-20T01:01:03;5.72;;;3.30;;
28822;SDS011;15961;54.678;9.110;2022-11-20T01:03:34;8.85;;;3.50;;
28822;SDS011;15961;54.678;9.110;2022-11-20T01:06:02;9.32;;;3.17;;
28822;SDS011;15961;54.678;9.110;2022-11-20T01:08:30;7.10;;;3.42;;
28822;SDS011;15961;54.678;9.110;2022-11-20T01:11:00;6.65;;;3.28;;
28822;SDS011;15961;54.678;9.110;2022-11-20T01:13:27;6.05;;;3.47;;
28822;SDS011;15961;54.678;9.110;2022-11-20T01:16:10;7.40;;;3.47;;
28822;SDS011;15961;54.678;9.110;2022-11-20T01:18:39;7.15;;;3.25;;
28822;SDS011;15961;54.678;9.110;2022-11-20T01:21:08;8.93;;;3.70;;
28822;SDS011;15961;54.678;9.110;2022-11-20T01:23:36;14.43;;;3.42;;
28822;SDS011;15961;54.678;9.110;2022-11-20T01:26:04;11.32;;;4.25;;
28822;SDS011;15961;54.678;9.110;2022-11-20T01:28:32;13.25;;;3.58;;
28822;SDS011;15961;54.678;9.110;2022-11-20T01:31:01;7.38;;;3.03;;
28822;SDS011;15961;54.678;9.110;2022-11-20T01:33:26;12.35;;;3.47;;
28822;SDS011;15961;54.678;9.110;2022-11-20T01:35:52;8.75;;;3.50;;
28822;SDS011;15961;54.678;9.110;2022-11-20T01:38:27;12.93;;;3.55;;
28822;SDS011;15961;54.678;9.110;2022-11-20T01:40:55;12.50;;;3.40;;
28822;SDS011;15961;54.678;9.110;2022-11-20T01:43:21;11.40;;;3.78;;
28822;SDS011;15961;54.678;9.110;2022-11-20T01:46:04;7.53;;;3.45;;
28822;SDS011;15961;54.678;9.110;2022-11-20T01:48:43;7.22;;;3.05;;
28822;SDS011;15961;54.678;9.110;2022-11-20T01:51:19;8.75;;;3.47;;
28822;SDS011;15961;54.678;9.110;2022-11-20T01:54:07;13.98;;;3.20;;
28822;SDS011;15961;54.678;9.110;2022-11-20T01:56:37;10.73;;;4.05;;
28822;SDS011;15961;54.678;9.110;2022-11-20T01:59:06;9.23;;;3.45;;
28822;SDS011;15961;54.678;9.110;2022-11-20T02:01:33;9.68;;;2.97;;
28822;SDS011;15961;54.678;9.110;2022-11-20T02:03:59;3.83;;;2.75;;
28822;SDS011;15961;54.678;9.110;2022-11-20T02:06:26;8.70;;;3.25;;
28822;SDS011;15961;54.678;9.110;2022-11-20T02:09:09;5.07;;;2.67;;
28822;SDS011;15961;54.678;9.110;2022-11-20T02:11:35;4.88;;;3.28;;
28822;SDS011;15961;54.678;9.110;2022-11-20T02:14:00;5.93;;;2.95;;
28822;SDS011;15961;54.678;9.110;2022-11-20T02:18:52;7.70;;;2.72;;
28822;SDS011;15961;54.678;9.110;2022-11-20T02:24:18;9.60;;;2.67;;
28822;SDS011;15961;54.678;9.110;2022-11-20T02:26:49;8.57;;;3.65;;
28822;SDS011;15961;54.678;9.110;2022-11-20T02:29:41;7.40;;;2.50;;
28822;SDS011;15961;54.678;9.110;2022-11-20T02:34:50;8.15;;;3.08;;
28822;SDS011;15961;54.678;9.110;2022-11-20T02:37:16;8.50;;;3.47;;
28822;SDS011;15961;54.678;9.110;2022-11-20T02:39:43;7.70;;;3.25;;
28822;SDS011;15961;54.678;9.110;2022-11-20T02:42:11;10.00;;;3.88;;
28822;SDS011;15961;54.678;9.110;2022-11-20T02:44:36;4.38;;;2.65;;
28822;SDS011;15961;54.678;9.110;2022-11-20T02:47:02;6.68;;;3.42;;
28822;SDS011;15961;54.678;9.110;2022-11-20T02:49:28;7.88;;;3.45;;
28822;SDS011;15961;54.678;9.110;2022-11-20T02:51:53;6.95;;;2.97;;
28822;SDS011;15961;54.678;9.110;2022-11-20T02:54:19;7.45;;;3.20;;
28822;SDS011;15961;54.678;9.110;2022-11-20T02:56:44;8.85;;;3.10;;
28822;SDS011;15961;54.678;9.110;2022-11-20T02:59:10;6.25;;;2.80;;
28822;SDS011;15961;54.678;9.110;2022-11-20T03:01:35;10.13;;;3.25;;
28822;SDS011;15961;54.678;9.110;2022-11-20T03:04:01;5.38;;;3.17;;
28822;SDS011;15961;54.678;9.110;2022-11-20T03:06:27;5.07;;;3.22;;
28822;SDS011;15961;54.678;9.110;2022-11-20T03:08:52;10.32;;;3.38;;
28822;SDS011;15961;54.678;9.110;2022-11-20T03:11:18;12.00;;;3.58;;
28822;SDS011;15961;54.678;9.110;2022-11-20T03:13:44;7.10;;;3.08;;
28822;SDS011;15961;54.678;9.110;2022-11-20T03:16:11;4.43;;;3.00;;
28822;SDS011;15961;54.678;9.110;2022-11-20T03:18:39;21.90;;;3.83;;
28822;SDS011;15961;54.678;9.110;2022-11-20T03:21:06;4.63;;;2.88;;
28822;SDS011;15961;54.678;9.110;2022-11-20T03:23:32;9.40;;;3.13;;
28822;SDS011;15961;54.678;9.110;2022-11-20T03:26:11;6.47;;;3.50;;
28822;SDS011;15961;54.678;9.110;2022-11-20T03:28:40;8.05;;;3.28;;
28822;SDS011;15961;54.678;9.110;2022-11-20T03:31:07;11.60;;;3.90;;
28822;SDS011;15961;54.678;9.110;2022-11-20T03:33:37;11.30;;;3.15;;
28822;SDS011;15961;54.678;9.110;2022-11-20T03:36:04;8.20;;;3.63;;
28822;SDS011;15961;54.678;9.110;2022-11-20T03:38:32;8.05;;;3.45;;
28822;SDS011;15961;54.678;9.110;2022-11-20T03:40:58;9.52;;;3.50;;
28822;SDS011;15961;54.678;9.110;2022-11-20T03:43:48;5.72;;;3.40;;
28822;SDS011;15961;54.678;9.110;2022-11-20T03:46:16;5.28;;;3.30;;
28822;SDS011;15961;54.678;9.110;2022-11-20T03:48:42;7.78;;;3.10;;
28822;SDS011;15961;54.678;9.110;2022-11-20T03:53:33;3.85;;;2.80;;
28822;SDS011;15961;54.678;9.110;2022-11-20T03:55:58;5.70;;;2.85;;
28822;SDS011;15961;54.678;9.110;2022-11-20T03:58:24;5.22;;;3.33;;
28822;SDS011;15961;54.678;9.110;2022-11-20T04:00:49;11.63;;;3.15;;
28822;SDS011;15961;54.678;9.110;2022-11-20T04:03:15;5.97;;;3.40;;
28822;SDS011;15961;54.678;9.110;2022-11-20T04:05:40;4.93;;;2.90;;
28822;SDS011;15961;54.678;9.110;2022-11-20T04:08:06;5.63;;;2.88;;
28822;SDS011;15961;54.678;9.110;2022-11-20T04:10:32;6.72;;;2.83;;
28822;SDS011;15961;54.678;9.110;2022-11-20T04:12:57;5.65;;;3.38;;
28822;SDS011;15961;54.678;9.110;2022-11-20T04:15:23;7.00;;;3.42;;
28822;SDS011;15961;54.678;9.110;2022-11-20T04:17:48;12.68;;;3.28;;
28822;SDS011;15961;54.678;9.110;2022-11-20T04:20:14;5.32;;;3.58;;
28822;SDS011;15961;54.678;9.110;2022-11-20T04:22:39;5.85;;;2.90;;
28822;SDS011;15961;54.678;9.110;2022-11-20T04:25:05;5.03;;;3.08;;
28822;SDS011;15961;54.678;9.110;2022-11-20T04:27:31;6.13;;;3.08;;
28822;SDS011;15961;54.678;9.110;2022-11-20T04:29:56;6.97;;;3.47;;
28822;SDS011;15961;54.678;9.110;2022-11-20T04:32:22;8.95;;;3.95;;
28822;SDS011;15961;54.678;9.110;2022-11-20T04:34:47;8.60;;;3.53;;
28822;SDS011;15961;54.678;9.110;2022-11-20T04:37:13;10.30;;;3.42;;
28822;SDS011;15961;54.678;9.110;2022-11-20T04:39:38;5.68;;;3.78;;
28822;SDS011;15961;54.678;9.110;2022-11-20T04:42:04;7.63;;;4.13;;
28822;SDS011;15961;54.678;9.110;2022-11-20T04:47:13;10.95;;;3.00;;
28822;SDS011;15961;54.678;9.110;2022-11-20T04:49:39;9.80;;;3.88;;
28822;SDS011;15961;54.678;9.110;2022-11-20T04:52:05;4.40;;;3.20;;
28822;SDS011;15961;54.678;9.110;2022-11-20T04:54:30;9.18;;;3.42;;
28822;SDS011;15961;54.678;9.110;2022-11-20T04:56:56;6.40;;;3.58;;
28822;SDS011;15961;54.678;9.110;2022-11-20T04:59:21;5.32;;;4.00;;
28822;SDS011;15961;54.678;9.110;2022-11-20T05:01:47;11.25;;;4.55;;
28822;SDS011;15961;54.678;9.110;2022-11-20T05:04:17;8.18;;;4.05;;
28822;SDS011;15961;54.678;9.110;2022-11-20T05:06:43;8.02;;;4.15;;
28822;SDS011;15961;54.678;9.110;2022-11-20T05:09:10;4.78;;;3.65;;
28822;SDS011;15961;54.678;9.110;2022-11-20T05:11:36;6.10;;;4.28;;
28822;SDS011;15961;54.678;9.110;2022-11-20T05:14:01;10.35;;;4.88;;
28822;SDS011;15961;54.678;9.110;2022-11-20T05:16:27;10.38;;;4.13;;
28822;SDS011;15961;54.678;9.110;2022-11-20T05:18:53;9.75;;;4.25;;
28822;SDS011;15961;54.678;9.110;2022-11-20T05:21:19;8.82;;;4.07;;
28822;SDS011;15961;54.678;9.110;2022-11-20T05:23:45;7.25;;;4.82;;
28822;SDS011;15961;54.678;9.110;2022-11-20T05:26:12;7.03;;;4.53;;
28822;SDS011;15961;54.678;9.110;2022-11-20T05:28:40;8.52;;;4.68;;
28822;SDS011;15961;54.678;9.110;2022-11-20T05:31:09;12.13;;;4.72;;
28822;SDS011;15961;54.678;9.110;2022-11-20T05:33:39;7.82;;;4.07;;
28822;SDS011;15961;54.678;9.110;2022-11-20T05:36:06;10.07;;;4.18;;
28822;SDS011;15961;54.678;9.110;2022-11-20T05:38:32;7.07;;;4.35;;
28822;SDS011;15961;54.678;9.110;2022-11-20T05:41:04;8.13;;;5.03;;
28822;SDS011;15961;54.678;9.110;2022-11-20T05:43:32;11.02;;;4.47;;
28822;SDS011;15961;54.678;9.110;2022-11-20T05:46:01;7.47;;;4.40;;
28822;SDS011;15961;54.678;9.110;2022-11-20T05:48:27;6.10;;;4.05;;
28822;SDS011;15961;54.678;9.110;2022-11-20T05:50:52;6.20;;;4.13;;
28822;SDS011;15961;54.678;9.110;2022-11-20T05:53:18;9.27;;;4.85;;
28822;SDS011;15961;54.678;9.110;2022-11-20T05:55:43;6.50;;;3.97;;
28822;SDS011;15961;54.678;9.110;2022-11-20T05:58:09;4.68;;;3.50;;
28822;SDS011;15961;54.678;9.110;2022-11-20T06:00:35;8.88;;;3.97;;
28822;SDS011;15961;54.678;9.110;2022-11-20T06:03:00;8.70;;;3.65;;
28822;SDS011;15961;54.678;9.110;2022-11-20T06:05:26;4.68;;;3.60;;
28822;SDS011;15961;54.678;9.110;2022-11-20T06:07:51;5.15;;;3.45;;
28822;SDS011;15961;54.678;9.110;2022-11-20T06:10:17;5.32;;;3.30;;
28822;SDS011;15961;54.678;9.110;2022-11-20T06:12:42;7.03;;;4.50;;
28822;SDS011;15961;54.678;9.110;2022-11-20T06:15:08;10.82;;;5.82;;
28822;SDS011;15961;54.678;9.110;2022-11-20T06:17:34;8.85;;;5.10;;
28822;SDS011;15961;54.678;9.110;2022-11-20T06:19:59;7.95;;;4.75;;
28822;SDS011;15961;54.678;9.110;2022-11-20T06:22:25;8.18;;;5.10;;
28822;SDS011;15961;54.678;9.110;2022-11-20T06:24:51;6.85;;;3.90;;
28822;SDS011;15961;54.678;9.110;2022-11-20T06:27:16;7.72;;;4.13;;
28822;SDS011;15961;54.678;9.110;2022-11-20T06:29:42;10.85;;;4.55;;
28822;SDS011;15961;54.678;9.110;2022-11-20T06:32:08;10.25;;;4.38;;
28822;SDS011;15961;54.678;9.110;2022-11-20T06:34:34;7.60;;;3.88;;
28822;SDS011;15961;54.678;9.110;2022-11-20T06:36:59;10.02;;;4.40;;
28822;SDS011;15961;54.678;9.110;2022-11-20T06:39:25;6.75;;;3.65;;
28822;SDS011;15961;54.678;9.110;2022-11-20T06:41:50;4.82;;;3.70;;
28822;SDS011;15961;54.678;9.110;2022-11-20T06:44:16;5.28;;;3.33;;
28822;SDS011;15961;54.678;9.110;2022-11-20T06:46:41;7.07;;;4.40;;
28822;SDS011;15961;54.678;9.110;2022-11-20T06:49:07;9.93;;;5.53;;
28822;SDS011;15961;54.678;9.110;2022-11-20T06:51:32;20.00;;;10.75;;
28822;SDS011;15961;54.678;9.110;2022-11-20T06:53:58;60.22;;;28.73;;
28822;SDS011;15961;54.678;9.110;2022-11-20T06:56:23;32.70;;;15.35;;
28822;SDS011;15961;54.678;9.110;2022-11-20T06:58:49;19.33;;;9.57;;
28822;SDS011;15961;54.678;9.110;2022-11-20T07:01:14;18.30;;;7.93;;
28822;SDS011;15961;54.678;9.110;2022-11-20T07:03:40;86.28;;;24.67;;
28822;SDS011;15961;54.678;9.110;2022-11-20T07:06:07;29.13;;;12.65;;
28822;SDS011;15961;54.678;9.110;2022-11-20T07:08:33;43.35;;;12.80;;
28822;SDS011;15961;54.678;9.110;2022-11-20T07:11:00;84.45;;;24.20;;
28822;SDS011;15961;54.678;9.110;2022-11-20T07:13:27;53.90;;;15.60;;
28822;SDS011;15961;54.678;9.110;2022-11-20T07:15:53;22.27;;;8.40;;
28822;SDS011;15961;54.678;9.110;2022-11-20T07:18:19;13.10;;;5.53;;
28822;SDS011;15961;54.678;9.110;2022-11-20T07:20:45;8.55;;;5.45;;
28822;SDS011;15961;54.678;9.110;2022-11-20T07:23:10;22.80;;;5.85;;
28822;SDS011;15961;54.678;9.110;2022-11-20T07:25:36;12.18;;;5.75;;
28822;SDS011;15961;54.678;9.110;2022-11-20T07:28:01;10.48;;;5.97;;
28822;SDS011;15961;54.678;9.110;2022-11-20T07:30:27;14.55;;;5.82;;
28822;SDS011;15961;54.678;9.110;2022-11-20T07:32:54;21.58;;;9.43;;
28822;SDS011;15961;54.678;9.110;2022-11-20T07:35:20;28.90;;;10.20;;
28822;SDS011;15961;54.678;9.110;2022-11-20T07:37:46;103.47;;;22.90;;
28822;SDS011;15961;54.678;9.110;2022-11-20T07:40:13;165.40;;;31.20;;
28822;SDS011;15961;54.678;9.110;2022-11-20T07:42:46;45.30;;;13.77;;
28822;SDS011;15961;54.678;9.110;2022-11-20T07:45:16;30.05;;;10.15;;
28822;SDS011;15961;54.678;9.110;2022-11-20T07:47:43;14.35;;;8.65;;
28822;SDS011;15961;54.678;9.110;2022-11-20T07:50:08;12.43;;;7.43;;
28822;SDS011;15961;54.678;9.110;2022-11-20T07:52:34;12.52;;;6.80;;
28822;SDS011;15961;54.678;9.110;2022-11-20T07:55:00;17.50;;;7.28;;
28822;SDS011;15961;54.678;9.110;2022-11-20T07:57:25;9.15;;;6.03;;
28822;SDS011;15961;54.678;9.110;2022-11-20T07:59:51;10.45;;;6.35;;
28822;SDS011;15961;54.678;9.110;2022-11-20T08:02:16;9.23;;;5.82;;
28822;SDS011;15961;54.678;9.110;2022-11-20T08:04:42;7.03;;;5.20;;
28822;SDS011;15961;54.678;9.110;2022-11-20T08:07:07;14.57;;;7.82;;
28822;SDS011;15961;54.678;9.110;2022-11-20T08:09:33;11.52;;;8.10;;
28822;SDS011;15961;54.678;9.110;2022-11-20T08:11:58;32.53;;;13.93;;
28822;SDS011;15961;54.678;9.110;2022-11-20T08:14:47;15.25;;;8.88;;
28822;SDS011;15961;54.678;9.110;2022-11-20T08:17:13;25.15;;;11.98;;
28822;SDS011;15961;54.678;9.110;2022-11-20T08:19:38;26.85;;;12.00;;
28822;SDS011;15961;54.678;9.110;2022-11-20T08:22:04;39.35;;;14.77;;
28822;SDS011;15961;54.678;9.110;2022-11-20T08:24:29;27.48;;;12.20;;
28822;SDS011;15961;54.678;9.110;2022-11-20T08:26:57;20.63;;;10.10;;
28822;SDS011;15961;54.678;9.110;2022-11-20T08:29:24;25.55;;;11.50;;
28822;SDS011;15961;54.678;9.110;2022-11-20T08:31:50;17.13;;;8.82;;
28822;SDS011;15961;54.678;9.110;2022-11-20T08:34:16;19.20;;;9.20;;
28822;SDS011;15961;54.678;9.110;2022-11-20T08:36:41;25.70;;;9.32;;
28822;SDS011;15961;54.678;9.110;2022-11-20T08:39:07;28.95;;;12.98;;
28822;SDS011;15961;54.678;9.110;2022-11-20T08:41:32;40.22;;;12.90;;
28822;SDS011;15961;54.678;9.110;2022-11-20T08:43:59;37.75;;;12.68;;
28822;SDS011;15961;54.678;9.110;2022-11-20T08:46:28;24.60;;;8.23;;
28822;SDS011;15961;54.678;9.110;2022-11-20T08:48:58;20.75;;;9.23;;
28822;SDS011;15961;54.678;9.110;2022-11-20T08:51:23;14.07;;;7.97;;
28822;SDS011;15961;54.678;9.110;2022-11-20T08:53:49;15.57;;;6.53;;
28822;SDS011;15961;54.678;9.110;2022-11-20T08:56:14;9.82;;;6.22;;
28822;SDS011;15961;54.678;9.110;2022-11-20T08:58:40;9.38;;;6.90;;
28822;SDS011;15961;54.678;9.110;2022-11-20T09:01:06;9.13;;;6.50;;
28822;SDS011;15961;54.678;9.110;2022-11-20T09:03:32;10.25;;;5.65;;
28822;SDS011;15961;54.678;9.110;2022-11-20T09:06:01;8.10;;;6.03;;
28822;SDS011;15961;54.678;9.110;2022-11-20T09:08:29;7.03;;;5.50;;
28822;SDS011;15961;54.678;9.110;2022-11-20T09:10:56;6.78;;;5.05;;
28822;SDS011;15961;54.678;9.110;2022-11-20T09:13:22;10.20;;;5.38;;
28822;SDS011;15961;54.678;9.110;2022-11-20T09:18:24;8.77;;;4.90;;
28822;SDS011;15961;54.678;9.110;2022-11-20T09:20:50;7.38;;;4.68;;
28822;SDS011;15961;54.678;9.110;2022-11-20T09:23:16;5.25;;;4.30;;
28822;SDS011;15961;54.678;9.110;2022-11-20T09:25:42;6.20;;;4.38;;
28822;SDS011;15961;54.678;9.110;2022-11-20T09:28:08;4.43;;;3.30;;
28822;SDS011;15961;54.678;9.110;2022-11-20T09:30:34;5.88;;;4.03;;
28822;SDS011;15961;54.678;9.110;2022-11-20T09:32:59;4.45;;;3.40;;
28822;SDS011;15961;54.678;9.110;2022-11-20T09:35:25;3.47;;;3.13;;
28822;SDS011;15961;54.678;9.110;2022-11-20T09:37:50;4.55;;;3.55;;
28822;SDS011;15961;54.678;9.110;2022-11-20T09:40:20;4.95;;;3.35;;
28822;SDS011;15961;54.678;9.110;2022-11-20T09:48:22;4.28;;;3.33;;
28822;SDS011;15961;54.678;9.110;2022-11-20T09:54:13;5.13;;;3.47;;
28822;SDS011;15961;54.678;9.110;2022-11-20T09:56:45;4.05;;;3.63;;
28822;SDS011;15961;54.678;9.110;2022-11-20T10:05:25;3.72;;;3.38;;
28822;SDS011;15961;54.678;9.110;2022-11-20T10:08:10;6.03;;;3.47;;
28822;SDS011;15961;54.678;9.110;2022-11-20T10:10:43;3.83;;;3.42;;
28822;SDS011;15961;54.678;9.110;2022-11-20T10:13:29;3.95;;;3.00;;
28822;SDS011;15961;54.678;9.110;2022-11-20T10:30:09;4.55;;;3.47;;
28822;SDS011;15961;54.678;9.110;2022-11-20T10:32:39;7.78;;;3.65;;
28822;SDS011;15961;54.678;9.110;2022-11-20T10:35:16;4.50;;;3.08;;
28822;SDS011;15961;54.678;9.110;2022-11-20T10:38:02;4.38;;;3.00;;
28822;SDS011;15961;54.678;9.110;2022-11-20T10:40:35;5.55;;;3.85;;
28822;SDS011;15961;54.678;9.110;2022-11-20T10:43:18;6.10;;;3.70;;
28822;SDS011;15961;54.678;9.110;2022-11-20T10:48:28;3.30;;;2.60;;
28822;SDS011;15961;54.678;9.110;2022-11-20T10:53:54;4.15;;;3.13;;
28822;SDS011;15961;54.678;9.110;2022-11-20T10:56:41;4.43;;;3.40;;
28822;SDS011;15961;54.678;9.110;2022-11-20T11:02:00;3.78;;;2.83;;
28822;SDS011;15961;54.678;9.110;2022-11-20T11:09:45;5.53;;;3.40;;
28822;SDS011;15961;54.678;9.110;2022-11-20T11:12:16;6.05;;;3.80;;
28822;SDS011;15961;54.678;9.110;2022-11-20T11:14:43;5.75;;;3.88;;
28822;SDS011;15961;54.678;9.110;2022-11-20T11:17:24;5.53;;;3.75;;
28822;SDS011;15961;54.678;9.110;2022-11-20T11:19:58;9.30;;;2.75;;
28822;SDS011;15961;54.678;9.110;2022-11-20T11:22:27;4.32;;;3.38;;
28822;SDS011;15961;54.678;9.110;2022-11-20T11:24:55;4.35;;;3.17;;
28822;SDS011;15961;54.678;9.110;2022-11-20T11:27:21;8.07;;;3.97;;
28822;SDS011;15961;54.678;9.110;2022-11-20T11:29:46;9.30;;;6.32;;
28822;SDS011;15961;54.678;9.110;2022-11-20T11:32:13;5.45;;;3.97;;
28822;SDS011;15961;54.678;9.110;2022-11-20T11:34:40;7.53;;;4.60;;
28822;SDS011;15961;54.678;9.110;2022-11-20T11:37:10;22.20;;;13.32;;
28822;SDS011;15961;54.678;9.110;2022-11-20T11:39:42;6.15;;;4.03;;
28822;SDS011;15961;54.678;9.110;2022-11-20T11:42:11;4.20;;;3.30;;
28822;SDS011;15961;54.678;9.110;2022-11-20T11:44:43;6.43;;;4.20;;
28822;SDS011;15961;54.678;9.110;2022-11-20T11:47:30;4.00;;;3.13;;
28822;SDS011;15961;54.678;9.110;2022-11-20T11:56:10;6.10;;;2.40;;
28822;SDS011;15961;54.678;9.110;2022-11-20T11:58:50;4.85;;;2.80;;
28822;SDS011;15961;54.678;9.110;2022-11-20T12:01:30;2.90;;;2.13;;
28822;SDS011;15961;54.678;9.110;2022-11-20T12:07:18;2.65;;;1.75;;
28822;SDS011;15961;54.678;9.110;2022-11-20T12:09:52;2.13;;;1.80;;
28822;SDS011;15961;54.678;9.110;2022-11-20T12:12:29;2.80;;;1.70;;
28822;SDS011;15961;54.678;9.110;2022-11-20T12:15:01;2.42;;;1.63;;
28822;SDS011;15961;54.678;9.110;2022-11-20T12:17:29;2.28;;;1.50;;
28822;SDS011;15961;54.678;9.110;2022-11-20T12:19:54;3.42;;;1.63;;
28822;SDS011;15961;54.678;9.110;2022-11-20T12:25:35;3.55;;;1.98;;
28822;SDS011;15961;54.678;9.110;2022-11-20T12:28:10;3.17;;;1.80;;
28822;SDS011;15961;54.678;9.110;2022-11-20T12:30:58;3.92;;;1.95;;
28822;SDS011;15961;54.678;9.110;2022-11-20T12:36:48;2.95;;;1.90;;
28822;SDS011;15961;54.678;9.110;2022-11-20T12:39:23;5.57;;;1.67;;
28822;SDS011;15961;54.678;9.110;2022-11-20T12:41:55;1.63;;;1.40;;
28822;SDS011;15961;54.678;9.110;2022-11-20T12:48:05;3.03;;;1.73;;
28822;SDS011;15961;54.678;9.110;2022-11-20T12:51:04;2.50;;;1.63;;
28822;SDS011;15961;54.678;9.110;2022-11-20T12:56:44;3.45;;;1.42;;
28822;SDS011;15961;54.678;9.110;2022-11-20T13:07:11;2.78;;;1.77;;
28822;SDS011;15961;54.678;9.110;2022-11-20T13:09:40;4.15;;;1.70;;
28822;SDS011;15961;54.678;9.110;2022-11-20T13:14:57;4.68;;;1.63;;
28822;SDS011;15961;54.678;9.110;2022-11-20T13:17:48;1.70;;;1.45;;
28822;SDS011;15961;54.678;9.110;2022-11-20T13:20:19;3.03;;;1.65;;
28822;SDS011;15961;54.678;9.110;2022-11-20T13:22:46;2.42;;;2.03;;
28822;SDS011;15961;54.678;9.110;2022-11-20T13:27:55;2.30;;;1.60;;
28822;SDS011;15961;54.678;9.110;2022-11-20T13:30:23;3.75;;;2.88;;
28822;SDS011;15961;54.678;9.110;2022-11-20T13:35:34;2.10;;;1.63;;
28822;SDS011;15961;54.678;9.110;2022-11-20T13:38:06;2.90;;;1.65;;
28822;SDS011;15961;54.678;9.110;2022-11-20T13:40:38;2.20;;;1.80;;
28822;SDS011;15961;54.678;9.110;2022-11-20T13:43:18;8.50;;;1.85;;
28822;SDS011;15961;54.678;9.110;2022-11-20T13:46:21;3.65;;;1.75;;
28822;SDS011;15961;54.678;9.110;2022-11-20T13:48:41;5.88;;;1.85;;
28822;SDS011;15961;54.678;9.110;2022-11-20T14:02:37;2.67;;;2.05;;
28822;SDS011;15961;54.678;9.110;2022-11-20T14:05:03;6.03;;;2.30;;
28822;SDS011;15961;54.678;9.110;2022-11-20T14:07:39;2.92;;;1.50;;
28822;SDS011;15961;54.678;9.110;2022-11-20T14:10:19;1.73;;;1.40;;
28822;SDS011;15961;54.678;9.110;2022-11-20T14:12:52;5.82;;;2.00;;
28822;SDS011;15961;54.678;9.110;2022-11-20T14:15:28;1.77;;;1.42;;
28822;SDS011;15961;54.678;9.110;2022-11-20T14:17:56;1.48;;;1.23;;
28822;SDS011;15961;54.678;9.110;2022-11-20T14:20:23;2.17;;;1.52;;
28822;SDS011;15961;54.678;9.110;2022-11-20T14:22:52;4.00;;;1.63;;
28822;SDS011;15961;54.678;9.110;2022-11-20T14:25:23;2.78;;;2.00;;
28822;SDS011;15961;54.678;9.110;2022-11-20T14:27:56;3.60;;;1.80;;
28822;SDS011;15961;54.678;9.110;2022-11-20T14:30:24;2.08;;;1.58;;
28822;SDS011;15961;54.678;9.110;2022-11-20T14:32:53;1.95;;;1.40;;
28822;SDS011;15961;54.678;9.110;2022-11-20T14:35:25;2.42;;;1.77;;
28822;SDS011;15961;54.678;9.110;2022-11-20T14:37:52;2.35;;;1.60;;
28822;SDS011;15961;54.678;9.110;2022-11-20T14:42:50;1.88;;;1.63;;
28822;SDS011;15961;54.678;9.110;2022-11-20T14:45:16;4.00;;;2.20;;
28822;SDS011;15961;54.678;9.110;2022-11-20T14:47:42;2.72;;;1.80;;
28822;SDS011;15961;54.678;9.110;2022-11-20T14:50:17;4.70;;;2.50;;
28822;SDS011;15961;54.678;9.110;2022-11-20T14:52:49;2.53;;;1.85;;
28822;SDS011;15961;54.678;9.110;2022-11-20T14:55:24;2.83;;;2.20;;
28822;SDS011;15961;54.678;9.110;2022-11-20T14:57:59;4.18;;;1.85;;
28822;SDS011;15961;54.678;9.110;2022-11-20T15:00:30;3.15;;;2.10;;
28822;SDS011;15961;54.678;9.110;2022-11-20T15:02:57;3.00;;;2.33;;
28822;SDS011;15961;54.678;9.110;2022-11-20T15:05:25;4.38;;;2.58;;
28822;SDS011;15961;54.678;9.110;2022-11-20T15:08:10;3.88;;;2.92;;
28822;SDS011;15961;54.678;9.110;2022-11-20T15:10:36;4.47;;;2.20;;
28822;SDS011;15961;54.678;9.110;2022-11-20T15:13:04;4.32;;;2.20;;
28822;SDS011;15961;54.678;9.110;2022-11-20T15:15:36;3.55;;;2.17;;
28822;SDS011;15961;54.678;9.110;2022-11-20T15:18:21;20.50;;;8.80;;
28822;SDS011;15961;54.678;9.110;2022-11-20T15:20:51;26.83;;;13.00;;
28822;SDS011;15961;54.678;9.110;2022-11-20T15:23:18;30.15;;;12.60;;
28822;SDS011;15961;54.678;9.110;2022-11-20T15:25:44;34.03;;;12.95;;
28822;SDS011;15961;54.678;9.110;2022-11-20T15:28:30;26.15;;;11.27;;
28822;SDS011;15961;54.678;9.110;2022-11-20T15:30:58;21.23;;;9.52;;
28822;SDS011;15961;54.678;9.110;2022-11-20T15:33:24;15.93;;;7.47;;
28822;SDS011;15961;54.678;9.110;2022-11-20T15:35:50;16.20;;;8.07;;
28822;SDS011;15961;54.678;9.110;2022-11-20T15:38:22;24.67;;;8.60;;
28822;SDS011;15961;54.678;9.110;2022-11-20T15:40:48;24.52;;;8.82;;
28822;SDS011;15961;54.678;9.110;2022-11-20T15:43:14;26.00;;;10.07;;
28822;SDS011;15961;54.678;9.110;2022-11-20T15:45:40;41.80;;;15.65;;
28822;SDS011;15961;54.678;9.110;2022-11-20T15:48:12;58.83;;;24.15;;
28822;SDS011;15961;54.678;9.110;2022-11-20T15:50:43;83.53;;;28.88;;
28822;SDS011;15961;54.678;9.110;2022-11-20T15:53:12;50.88;;;20.25;;
28822;SDS011;15961;54.678;9.110;2022-11-20T15:55:37;37.70;;;16.30;;
28822;SDS011;15961;54.678;9.110;2022-11-20T15:58:03;24.73;;;10.57;;
28822;SDS011;15961;54.678;9.110;2022-11-20T16:00:29;15.50;;;7.78;;
28822;SDS011;15961;54.678;9.110;2022-11-20T16:02:55;11.13;;;6.60;;
28822;SDS011;15961;54.678;9.110;2022-11-20T16:05:20;8.43;;;4.95;;
28822;SDS011;15961;54.678;9.110;2022-11-20T16:07:48;7.90;;;4.05;;
28822;SDS011;15961;54.678;9.110;2022-11-20T16:10:14;14.50;;;7.22;;
28822;SDS011;15961;54.678;9.110;2022-11-20T16:12:40;30.30;;;12.18;;
28822;SDS011;15961;54.678;9.110;2022-11-20T16:15:24;35.88;;;15.77;;
28822;SDS011;15961;54.678;9.110;2022-11-20T16:18:08;33.28;;;15.00;;
28822;SDS011;15961;54.678;9.110;2022-11-20T16:20:35;25.92;;;13.05;;
28822;SDS011;15961;54.678;9.110;2022-11-20T16:23:00;67.75;;;20.77;;
28822;SDS011;15961;54.678;9.110;2022-11-20T16:25:27;90.65;;;28.35;;
28822;SDS011;15961;54.678;9.110;2022-11-20T16:27:52;58.42;;;20.50;;
28822;SDS011;15961;54.678;9.110;2022-11-20T16:30:18;40.42;;;16.33;;
28822;SDS011;15961;54.678;9.110;2022-11-20T16:32:43;161.35;;;47.30;;
28822;SDS011;15961;54.678;9.110;2022-11-20T16:35:09;176.85;;;48.97;;
28822;SDS011;15961;54.678;9.110;2022-11-20T16:37:34;154.35;;;42.15;;
28822;SDS011;15961;54.678;9.110;2022-11-20T16:40:00;101.57;;;28.40;;
28822;SDS011;15961;54.678;9.110;2022-11-20T16:42:25;54.88;;;16.80;;